Time;durP1;ratioP1;P1;durP2;ratioP2;P2;SDS_P1;SDS_P2;PMS_P1;PMS_P2;Temp;Humidity;BMP_temperature;BMP_pressure;BME280_temperature;BME280_humidity;BME280_pressure;Samples;Min_cycle;Max_cycle;Signal;HPM_P1;HPM_P2
2022/11/19 00:01:23;;;;;;;3.53;3.22;;;0.50;99.90;;;;;;5047641;28;20052;-69
2022/11/19 00:03:49;;;;;;;4.25;3.72;;;0.50;99.90;;;;;;5041939;28;20045;-68
2022/11/19 00:06:20;;;;;;;9.15;4.25;;;0.50;99.90;;;;;;5047503;28;20087;-68
2022/11/19 00:08:46;;;;;;;4.10;3.70;;;0.50;99.90;;;;;;5029015;28;20044;-67
2022/11/19 00:11:15;;;;;;;4.15;3.58;;;0.50;99.90;;;;;;5030361;28;20049;-67
2022/11/19 00:13:42;;;;;;;4.88;3.45;;;0.40;99.90;;;;;;5047230;28;20060;-68
2022/11/19 00:16:10;;;;;;;5.03;3.70;;;0.40;99.90;;;;;;5029577;28;20053;-68
2022/11/19 00:18:36;;;;;;;4.80;3.83;;;0.40;99.90;;;;;;5031102;28;20041;-67
2022/11/19 00:21:04;;;;;;;4.40;4.00;;;0.40;99.90;;;;;;5013156;28;20133;-68
2022/11/19 00:23:30;;;;;;;4.35;3.95;;;0.40;99.90;;;;;;5031779;28;20530;-68
2022/11/19 00:25:56;;;;;;;4.00;3.65;;;0.40;99.90;;;;;;5046873;28;20079;-68
2022/11/19 00:28:22;;;;;;;9.48;3.90;;;0.40;99.90;;;;;;5047125;28;20087;-68
2022/11/19 00:30:47;;;;;;;5.07;4.30;;;0.40;99.90;;;;;;5047957;28;20084;-68
2022/11/19 00:33:13;;;;;;;6.53;4.05;;;0.30;99.90;;;;;;5046301;28;20871;-67
2022/11/19 00:35:39;;;;;;;5.03;4.20;;;0.40;99.90;;;;;;5048059;28;20392;-68
2022/11/19 00:38:05;;;;;;;5.38;4.60;;;0.40;99.90;;;;;;5046322;28;20123;-68
2022/11/19 00:40:31;;;;;;;4.88;4.35;;;0.40;99.90;;;;;;5047660;28;20505;-68
2022/11/19 00:45:47;;;;;;;6.32;4.50;;;0.30;99.90;;;;;;5005371;28;20110;-68
2022/11/19 00:48:13;;;;;;;6.50;4.43;;;0.30;99.90;;;;;;5014871;28;20128;-68
2022/11/19 00:50:39;;;;;;;4.22;3.83;;;0.30;99.90;;;;;;5029889;28;20128;-68
2022/11/19 00:53:04;;;;;;;5.50;4.40;;;0.30;99.90;;;;;;5030783;28;20056;-68
2022/11/19 00:55:30;;;;;;;5.15;3.90;;;0.30;99.90;;;;;;5029427;28;20139;-68
2022/11/19 00:57:56;;;;;;;4.60;4.10;;;0.30;99.90;;;;;;5047607;28;20483;-68
2022/11/19 01:00:22;;;;;;;4.72;4.30;;;0.30;99.90;;;;;;5029167;28;20083;-69
2022/11/19 01:02:48;;;;;;;5.15;4.45;;;0.20;99.90;;;;;;5045022;28;20053;-68
2022/11/19 01:05:14;;;;;;;7.65;4.93;;;0.20;99.90;;;;;;5046064;28;20051;-68
2022/11/19 01:07:39;;;;;;;5.82;4.03;;;0.20;99.90;;;;;;5046258;28;20076;-69
2022/11/19 01:10:06;;;;;;;5.35;4.00;;;0.10;99.90;;;;;;5047475;28;20045;-69
2022/11/19 01:13:33;;;;;;;6.63;4.50;;;0.10;99.90;;;;;;5045627;28;20045;-68
2022/11/19 01:15:17;;;;;;;5.70;4.22;;;0.10;99.90;;;;;;5046627;28;20048;-68
2022/11/19 01:17:43;;;;;;;7.28;4.80;;;0.00;99.90;;;;;;5041933;28;20102;-69
2022/11/19 01:20:09;;;;;;;5.32;4.70;;;0.00;99.90;;;;;;5047077;28;20130;-68
2022/11/19 01:22:35;;;;;;;6.65;4.32;;;-0.10;99.90;;;;;;5030488;28;20160;-69
2022/11/19 01:25:01;;;;;;;6.75;4.15;;;-0.10;99.90;;;;;;5045612;28;20041;-69
2022/11/19 01:27:27;;;;;;;5.95;4.53;;;-0.10;99.90;;;;;;5029467;28;20049;-69
2022/11/19 01:29:53;;;;;;;5.10;4.47;;;-0.20;99.90;;;;;;5012688;28;20053;-69
2022/11/19 01:32:18;;;;;;;9.65;5.78;;;-0.20;99.90;;;;;;5046497;28;20060;-69
2022/11/19 01:34:44;;;;;;;6.78;4.97;;;-0.20;99.90;;;;;;5045252;28;20102;-69
2022/11/19 01:37:10;;;;;;;6.53;4.57;;;-0.20;99.90;;;;;;5029487;28;20118;-69
2022/11/19 01:39:35;;;;;;;6.75;4.55;;;-0.30;99.90;;;;;;5029251;28;20049;-68
2022/11/19 01:42:01;;;;;;;6.63;4.63;;;-0.30;99.90;;;;;;5046169;28;20411;-69
2022/11/19 01:44:58;;;;;;;8.23;4.53;;;-0.40;99.90;;;;;;5046125;28;20045;-69
2022/11/19 01:47:24;;;;;;;6.05;4.20;;;-0.40;99.90;;;;;;5044471;28;20053;-68
2022/11/19 01:49:50;;;;;;;9.00;4.82;;;-0.40;99.90;;;;;;5047123;28;20057;-69
2022/11/19 01:52:15;;;;;;;5.22;3.88;;;-0.50;99.90;;;;;;5044559;28;20124;-68
2022/11/19 01:54:49;;;;;;;9.05;4.85;;;-0.50;99.90;;;;;;5046457;28;20545;-69
2022/11/19 01:57:16;;;;;;;6.35;4.70;;;-0.50;99.90;;;;;;5024473;28;20463;-68
2022/11/19 01:59:45;;;;;;;5.13;4.60;;;-0.50;99.90;;;;;;5040446;28;20071;-69
2022/11/19 02:02:13;;;;;;;9.23;5.43;;;-0.50;99.90;;;;;;5046122;28;20069;-69
2022/11/19 02:04:39;;;;;;;7.45;5.07;;;-0.60;99.90;;;;;;5028492;28;20132;-69
2022/11/19 02:07:08;;;;;;;7.78;4.90;;;-0.60;99.90;;;;;;5040202;28;20049;-69
2022/11/19 02:09:33;;;;;;;6.35;5.05;;;-0.60;99.90;;;;;;5043002;28;20084;-69
2022/11/19 02:12:22;;;;;;;5.57;5.07;;;-0.60;99.90;;;;;;5046095;28;20092;-69
2022/11/19 02:15:26;;;;;;;5.55;4.28;;;-0.60;99.90;;;;;;5034879;28;20574;-69
2022/11/19 02:18:10;;;;;;;6.65;4.57;;;-0.70;99.90;;;;;;4984182;28;20065;-68
2022/11/19 02:20:46;;;;;;;5.82;4.47;;;-0.70;99.90;;;;;;5035623;28;20538;-69
2022/11/19 02:23:24;;;;;;;7.65;4.78;;;-0.70;99.90;;;;;;5045876;28;20052;-68
2022/11/19 02:26:04;;;;;;;6.45;4.00;;;-0.70;99.90;;;;;;5044170;28;20118;-68
2022/11/19 02:28:43;;;;;;;7.85;5.43;;;-0.80;99.90;;;;;;5045793;28;20521;-68
2022/11/19 02:31:24;;;;;;;5.88;4.10;;;-0.80;99.90;;;;;;5028204;28;20053;-69
2022/11/19 02:34:01;;;;;;;6.97;4.43;;;-0.90;99.90;;;;;;5045796;28;20115;-68
2022/11/19 02:36:47;;;;;;;4.63;3.97;;;-0.90;99.90;;;;;;5044222;28;20098;-68
2022/11/19 02:39:29;;;;;;;6.80;4.65;;;-0.90;99.90;;;;;;5027612;28;20499;-68
2022/11/19 02:41:55;;;;;;;5.55;4.65;;;-0.90;99.90;;;;;;5046106;28;20434;-68
2022/11/19 02:47:20;;;;;;;6.70;4.60;;;-0.90;99.90;;;;;;5033077;28;20052;-69
2022/11/19 02:49:49;;;;;;;11.02;4.30;;;-0.90;99.90;;;;;;5045806;28;20074;-68
2022/11/19 02:52:16;;;;;;;12.20;4.63;;;-0.90;99.90;;;;;;5061175;28;20060;-68
2022/11/19 02:54:42;;;;;;;7.55;4.80;;;-0.90;99.90;;;;;;5045932;28;20284;-68
2022/11/19 02:57:12;;;;;;;5.43;3.90;;;-0.90;99.90;;;;;;5030109;28;20048;-68
2022/11/19 03:05:17;;;;;;;5.45;4.40;;;-0.80;99.90;;;;;;5044110;28;20076;-68
2022/11/19 03:07:44;;;;;;;6.32;4.72;;;-0.80;99.90;;;;;;5045810;28;20489;-68
2022/11/19 03:10:12;;;;;;;7.55;4.28;;;-0.90;99.90;;;;;;5044390;28;20044;-68
2022/11/19 03:12:47;;;;;;;4.35;3.95;;;-0.90;99.90;;;;;;5062010;28;20115;-69
2022/11/19 03:18:38;;;;;;;4.68;3.42;;;-0.90;99.90;;;;;;5043113;28;20057;-69
2022/11/19 03:21:16;;;;;;;6.60;4.93;;;-0.90;99.90;;;;;;5045865;28;20448;-69
2022/11/19 03:23:59;;;;;;;8.30;4.60;;;-0.90;99.90;;;;;;5044822;28;20439;-69
2022/11/19 03:26:50;;;;;;;6.53;4.38;;;-0.90;99.90;;;;;;5043769;28;20513;-68
2022/11/19 03:29:17;;;;;;;7.72;4.47;;;-0.90;99.90;;;;;;5046491;28;20102;-69
2022/11/19 03:31:48;;;;;;;5.63;4.32;;;-0.90;99.90;;;;;;5027630;28;20045;-69
2022/11/19 03:34:21;;;;;;;6.63;4.57;;;-0.90;99.90;;;;;;5045380;28;20049;-69
2022/11/19 03:36:50;;;;;;;6.28;4.20;;;-0.90;99.90;;;;;;5031527;28;20056;-69
2022/11/19 03:39:19;;;;;;;7.57;4.85;;;-0.90;99.90;;;;;;5044043;28;20037;-69
2022/11/19 03:41:47;;;;;;;7.60;4.07;;;-0.90;99.90;;;;;;5044791;28;20040;-69
2022/11/19 03:44:32;;;;;;;9.75;5.00;;;-0.90;99.90;;;;;;5060681;28;20056;-69
2022/11/19 03:47:03;;;;;;;8.68;4.95;;;-0.90;99.90;;;;;;5015717;28;20060;-69
2022/11/19 03:49:34;;;;;;;9.63;4.03;;;-0.90;99.90;;;;;;5030499;28;20045;-68
2022/11/19 03:52:20;;;;;;;7.18;4.53;;;-0.90;99.90;;;;;;5048420;28;20084;-69
2022/11/19 03:54:46;;;;;;;5.45;4.55;;;-0.90;99.90;;;;;;5048602;28;20088;-68
2022/11/19 03:57:14;;;;;;;5.03;4.40;;;-0.90;99.90;;;;;;5047354;28;20052;-69
2022/11/19 03:59:40;;;;;;;6.75;4.95;;;-0.90;99.90;;;;;;5064960;28;20499;-69
2022/11/19 04:02:09;;;;;;;8.15;4.70;;;-0.90;99.90;;;;;;5047027;28;20044;-68
2022/11/19 04:04:36;;;;;;;5.88;4.82;;;-0.90;99.90;;;;;;5048752;28;20072;-69
2022/11/19 04:07:21;;;;;;;11.13;5.28;;;-0.90;99.90;;;;;;5047964;28;20053;-69
2022/11/19 04:09:47;;;;;;;9.40;5.10;;;-0.80;99.90;;;;;;5046874;28;20045;-69
2022/11/19 04:12:22;;;;;;;8.90;4.90;;;-0.80;99.90;;;;;;5048246;28;20045;-68
2022/11/19 04:14:48;;;;;;;5.93;4.70;;;-0.90;99.90;;;;;;5046567;28;20037;-69
2022/11/19 04:17:14;;;;;;;5.47;4.47;;;-0.90;99.90;;;;;;5048736;28;20415;-69
2022/11/19 04:19:40;;;;;;;6.22;5.10;;;-0.90;99.90;;;;;;5046554;28;20052;-69
2022/11/19 04:22:07;;;;;;;8.98;5.88;;;-0.90;99.90;;;;;;5048161;28;20041;-69
2022/11/19 04:24:33;;;;;;;7.60;4.72;;;-0.90;99.90;;;;;;5030710;28;20037;-69
2022/11/19 04:26:58;;;;;;;6.40;4.85;;;-0.90;99.90;;;;;;5030435;28;20064;-69
2022/11/19 04:29:24;;;;;;;8.48;4.50;;;-0.90;99.90;;;;;;5048101;28;20041;-68
2022/11/19 04:31:49;;;;;;;8.55;5.15;;;-0.90;99.90;;;;;;5029664;28;20051;-68
2022/11/19 04:34:15;;;;;;;5.80;4.50;;;-0.90;99.90;;;;;;5048560;28;20419;-68
2022/11/19 04:36:42;;;;;;;6.43;4.47;;;-0.90;99.90;;;;;;5029534;28;20037;-68
2022/11/19 04:39:09;;;;;;;5.07;4.10;;;-0.90;99.90;;;;;;5047775;28;20057;-68
2022/11/19 04:41:35;;;;;;;5.28;4.20;;;-0.90;99.90;;;;;;5046619;28;20549;-68
2022/11/19 04:44:01;;;;;;;7.00;4.68;;;-0.90;99.90;;;;;;5030806;28;20044;-69
2022/11/19 04:46:28;;;;;;;8.73;4.68;;;-0.90;99.90;;;;;;5047583;28;20052;-69
2022/11/19 04:48:54;;;;;;;7.45;4.75;;;-0.90;99.90;;;;;;5046121;28;20392;-69
2022/11/19 04:51:19;;;;;;;8.38;4.65;;;-0.90;99.90;;;;;;5047648;28;20130;-68
2022/11/19 04:53:45;;;;;;;10.63;4.88;;;-0.90;99.90;;;;;;5045882;28;20076;-68
2022/11/19 04:56:11;;;;;;;6.63;4.97;;;-0.90;99.90;;;;;;5047568;28;20040;-68
2022/11/19 04:58:36;;;;;;;5.43;4.60;;;-0.90;99.90;;;;;;5011898;28;20045;-69
2022/11/19 05:01:02;;;;;;;8.68;4.85;;;-0.90;99.90;;;;;;5030755;28;20037;-68
2022/11/19 05:03:28;;;;;;;8.30;5.60;;;-0.90;99.90;;;;;;5047022;28;20056;-68
2022/11/19 05:05:55;;;;;;;11.98;6.07;;;-0.90;99.90;;;;;;5046047;28;20072;-68
2022/11/19 05:08:21;;;;;;;7.03;4.40;;;-1.00;99.90;;;;;;5047718;28;20575;-68
2022/11/19 05:10:46;;;;;;;6.60;4.45;;;-0.90;99.90;;;;;;5046078;28;20055;-68
2022/11/19 05:13:12;;;;;;;9.20;5.50;;;-0.90;99.90;;;;;;5047783;28;20152;-68
2022/11/19 05:15:38;;;;;;;5.97;4.60;;;-0.90;99.90;;;;;;5046533;28;20395;-68
2022/11/19 05:18:04;;;;;;;7.05;5.15;;;-0.90;99.90;;;;;;5047331;28;20053;-68
2022/11/19 05:20:30;;;;;;;4.50;4.05;;;-0.90;99.90;;;;;;5046068;28;20064;-71
2022/11/19 05:22:56;;;;;;;6.22;4.63;;;-0.90;99.90;;;;;;5029615;28;20052;-71
2022/11/19 05:25:21;;;;;;;8.30;5.20;;;-0.90;99.90;;;;;;5046688;28;20049;-70
2022/11/19 05:27:47;;;;;;;5.82;3.95;;;-0.90;99.90;;;;;;5045727;28;20049;-70
2022/11/19 05:30:13;;;;;;;8.20;4.88;;;-0.80;99.90;;;;;;5047052;28;20040;-71
2022/11/19 05:32:39;;;;;;;6.57;3.85;;;-0.80;99.90;;;;;;5044513;28;20045;-67
2022/11/19 05:35:05;;;;;;;7.85;4.72;;;-0.90;99.90;;;;;;5047013;28;20053;-67
2022/11/19 05:37:31;;;;;;;5.80;4.63;;;-0.90;99.90;;;;;;5045210;28;20041;-68
2022/11/19 05:39:56;;;;;;;7.97;4.50;;;-0.90;99.90;;;;;;5046045;28;20094;-68
2022/11/19 05:42:24;;;;;;;4.85;3.85;;;-0.90;99.90;;;;;;5046523;28;20253;-68
2022/11/19 05:44:50;;;;;;;7.18;4.72;;;-0.90;99.90;;;;;;5029035;28;20041;-68
2022/11/19 05:47:16;;;;;;;11.73;5.05;;;-0.90;99.90;;;;;;5046390;28;20052;-68
2022/11/19 05:49:41;;;;;;;7.53;4.90;;;-0.90;99.90;;;;;;5044700;28;20053;-68
2022/11/19 05:52:07;;;;;;;10.90;5.38;;;-0.90;99.90;;;;;;5046884;28;20095;-68
2022/11/19 05:54:34;;;;;;;8.35;4.95;;;-0.90;99.90;;;;;;5044964;28;20118;-68
2022/11/19 05:57:02;;;;;;;5.72;4.65;;;-1.00;99.90;;;;;;5046580;28;20226;-68
2022/11/19 05:59:28;;;;;;;6.82;4.82;;;-1.00;99.90;;;;;;5044682;28;20044;-68
2022/11/19 06:01:53;;;;;;;7.07;5.00;;;-1.00;99.90;;;;;;5044847;28;20048;-68
2022/11/19 06:04:19;;;;;;;6.03;5.10;;;-1.00;99.90;;;;;;5047860;28;20088;-68
2022/11/19 06:06:45;;;;;;;8.05;5.20;;;-1.10;99.90;;;;;;5028036;28;20404;-67
2022/11/19 06:09:11;;;;;;;5.22;4.00;;;-1.10;99.90;;;;;;5045572;28;20045;-68
2022/11/19 06:11:52;;;;;;;5.45;4.82;;;-1.10;99.90;;;;;;5026966;28;20132;-68
2022/11/19 06:14:25;;;;;;;5.80;5.03;;;-1.10;99.90;;;;;;5046638;28;20386;-68
2022/11/19 06:16:59;;;;;;;7.18;5.55;;;-1.10;99.90;;;;;;5045472;28;20582;-67
2022/11/19 06:19:26;;;;;;;7.82;5.07;;;-1.10;99.90;;;;;;5045029;28;20048;-68
2022/11/19 06:21:52;;;;;;;7.03;5.30;;;-1.10;99.90;;;;;;5042826;28;20124;-68
2022/11/19 06:24:18;;;;;;;6.78;5.13;;;-1.10;99.90;;;;;;5043980;28;20084;-68
2022/11/19 06:26:44;;;;;;;8.27;5.20;;;-1.10;99.90;;;;;;5043384;28;20434;-67
2022/11/19 06:29:12;;;;;;;5.57;4.28;;;-1.10;99.90;;;;;;5027503;28;20045;-68
2022/11/19 06:31:38;;;;;;;5.68;4.47;;;-1.10;99.90;;;;;;5033274;28;20138;-68
2022/11/19 06:34:04;;;;;;;6.50;4.80;;;-1.10;99.90;;;;;;5027489;28;20049;-67
2022/11/19 06:36:30;;;;;;;6.03;4.75;;;-1.10;99.90;;;;;;5043338;28;20045;-68
2022/11/19 06:38:55;;;;;;;7.88;5.15;;;-1.00;99.90;;;;;;5045337;28;20114;-68
2022/11/19 06:41:21;;;;;;;6.10;4.20;;;-1.10;99.90;;;;;;5027954;28;20044;-68
2022/11/19 06:43:47;;;;;;;14.00;5.65;;;-1.10;99.90;;;;;;5045592;28;20033;-68
2022/11/19 06:46:13;;;;;;;9.00;5.78;;;-1.10;99.90;;;;;;5043825;28;20057;-68
2022/11/19 06:48:39;;;;;;;9.85;5.10;;;-1.10;99.90;;;;;;5045953;28;20092;-68
2022/11/19 06:51:05;;;;;;;7.10;5.25;;;-1.10;99.90;;;;;;5043940;28;20128;-68
2022/11/19 06:53:33;;;;;;;6.63;5.20;;;-1.10;99.90;;;;;;5047013;28;20199;-68
2022/11/19 06:56:00;;;;;;;6.20;4.45;;;-1.10;99.90;;;;;;5044426;28;20091;-68
2022/11/19 06:58:27;;;;;;;5.35;4.75;;;-1.00;99.90;;;;;;5044926;28;20048;-68
2022/11/19 07:00:54;;;;;;;6.22;4.88;;;-1.00;99.90;;;;;;5045101;28;20395;-68
2022/11/19 07:03:19;;;;;;;6.70;4.95;;;-1.00;99.90;;;;;;5043941;28;20073;-68
2022/11/19 07:05:49;;;;;;;6.93;4.75;;;-1.00;99.90;;;;;;5027820;28;20045;-68
2022/11/19 07:08:15;;;;;;;7.77;5.30;;;-1.00;99.90;;;;;;5044011;28;20048;-68
2022/11/19 07:10:42;;;;;;;5.53;4.85;;;-1.00;99.90;;;;;;5045577;28;20302;-68
2022/11/19 07:13:08;;;;;;;8.63;5.80;;;-1.00;99.90;;;;;;5044615;28;20124;-68
2022/11/19 07:15:34;;;;;;;6.55;4.90;;;-1.00;99.90;;;;;;5028004;28;20857;-68
2022/11/19 07:18:00;;;;;;;6.07;5.00;;;-1.00;99.90;;;;;;5044584;28;20061;-67
2022/11/19 07:20:26;;;;;;;8.73;5.43;;;-1.00;99.90;;;;;;5027835;28;20068;-68
2022/11/19 07:22:52;;;;;;;5.50;4.82;;;-1.00;99.90;;;;;;5046851;28;20475;-68
2022/11/19 07:25:18;;;;;;;8.15;5.00;;;-1.00;99.90;;;;;;5047620;28;20048;-67
2022/11/19 07:27:46;;;;;;;9.48;5.85;;;-1.00;99.90;;;;;;5049030;28;20280;-68
2022/11/19 07:30:13;;;;;;;8.40;4.95;;;-0.90;99.90;;;;;;5047714;28;20053;-68
2022/11/19 07:32:39;;;;;;;5.75;5.13;;;-0.90;99.90;;;;;;5048677;28;20415;-67
2022/11/19 07:35:08;;;;;;;8.10;4.57;;;-0.90;99.90;;;;;;5048156;28;20080;-66
2022/11/19 07:37:34;;;;;;;9.60;4.95;;;-0.80;99.90;;;;;;5049088;28;20136;-65
2022/11/19 07:40:02;;;;;;;5.53;4.85;;;-0.80;99.90;;;;;;5048293;28;20075;-65
2022/11/19 07:45:13;;;;;;;7.90;4.75;;;-0.70;99.90;;;;;;5047753;28;20048;-65
2022/11/19 07:47:39;;;;;;;6.30;5.03;;;-0.60;99.90;;;;;;5035813;28;20103;-64
2022/11/19 07:50:05;;;;;;;6.28;3.95;;;-0.60;99.90;;;;;;5045892;28;20040;-64
2022/11/19 07:52:31;;;;;;;3.85;3.42;;;-0.60;99.90;;;;;;5049202;28;20517;-64
2022/11/19 07:54:57;;;;;;;7.47;3.63;;;-0.60;99.90;;;;;;5048534;28;20041;-64
2022/11/19 07:57:22;;;;;;;7.50;5.10;;;-0.60;99.90;;;;;;5048041;28;20044;-64
2022/11/19 07:59:49;;;;;;;5.95;4.43;;;-0.50;99.90;;;;;;5048671;28;20049;-64
2022/11/19 08:02:14;;;;;;;7.63;5.05;;;-0.50;99.90;;;;;;5048434;28;20083;-64
2022/11/19 08:04:40;;;;;;;7.47;5.30;;;-0.40;99.90;;;;;;5049110;28;20060;-64
2022/11/19 08:07:07;;;;;;;11.10;5.57;;;-0.40;99.90;;;;;;5047662;28;20090;-64
2022/11/19 08:09:32;;;;;;;6.60;5.15;;;-0.40;99.90;;;;;;5048851;28;20043;-64
2022/11/19 08:11:58;;;;;;;8.50;5.97;;;-0.40;99.90;;;;;;5047454;28;20028;-65
2022/11/19 08:14:24;;;;;;;14.30;5.18;;;-0.40;99.90;;;;;;5047266;28;20048;-65
2022/11/19 08:19:35;;;;;;;8.00;5.95;;;-0.30;99.90;;;;;;5045872;28;20041;-65
2022/11/19 08:22:01;;;;;;;9.50;5.93;;;-0.30;99.90;;;;;;5047191;28;20120;-65
2022/11/19 08:24:26;;;;;;;9.65;6.35;;;-0.20;99.90;;;;;;5048376;28;20395;-65
2022/11/19 08:26:52;;;;;;;7.25;5.55;;;-0.20;99.90;;;;;;5047620;28;20053;-65
2022/11/19 08:29:20;;;;;;;7.80;5.32;;;-0.20;99.90;;;;;;5047120;28;20083;-65
2022/11/19 08:31:47;;;;;;;10.00;6.32;;;-0.10;99.90;;;;;;5049477;28;20447;-64
2022/11/19 08:34:13;;;;;;;8.25;5.88;;;0.00;99.90;;;;;;5046183;28;20049;-64
2022/11/19 08:36:40;;;;;;;9.20;6.22;;;0.00;99.90;;;;;;5049494;28;20045;-65
2022/11/19 08:39:06;;;;;;;9.45;6.00;;;0.00;99.90;;;;;;5045544;28;20136;-65
2022/11/19 08:44:17;;;;;;;8.60;5.65;;;0.10;99.90;;;;;;5046860;28;20053;-65
2022/11/19 08:46:43;;;;;;;9.60;5.93;;;0.10;99.90;;;;;;5047122;28;20048;-65
2022/11/19 08:49:10;;;;;;;7.75;6.70;;;0.20;99.90;;;;;;5048785;28;20290;-65
2022/11/19 08:51:37;;;;;;;8.20;4.93;;;0.20;99.90;;;;;;5024259;28;20038;-65
2022/11/19 08:54:03;;;;;;;9.07;6.18;;;0.20;99.90;;;;;;5041268;28;20092;-65
2022/11/19 08:56:29;;;;;;;7.95;6.07;;;0.30;99.90;;;;;;5045020;28;20052;-65
2022/11/19 08:58:55;;;;;;;8.10;6.63;;;0.30;99.90;;;;;;5048431;28;20083;-65
2022/11/19 09:01:21;;;;;;;7.25;5.78;;;0.30;99.90;;;;;;5046309;28;20076;-65
2022/11/19 09:03:47;;;;;;;11.48;6.45;;;0.40;99.90;;;;;;5047066;28;20383;-65
2022/11/19 09:06:13;;;;;;;11.82;6.90;;;0.40;99.90;;;;;;5048258;28;20049;-65
2022/11/19 09:08:39;;;;;;;12.45;6.57;;;0.50;99.90;;;;;;5047326;28;20129;-65
2022/11/19 09:11:15;;;;;;;9.82;6.72;;;0.50;99.90;;;;;;5047300;28;20057;-65
2022/11/19 09:13:41;;;;;;;11.25;7.32;;;0.50;99.90;;;;;;5047699;28;20094;-65
2022/11/19 09:16:08;;;;;;;9.18;6.72;;;0.60;99.90;;;;;;5030311;28;20048;-65
2022/11/19 09:18:37;;;;;;;9.13;6.72;;;0.60;99.90;;;;;;5047476;28;20068;-65
2022/11/19 09:21:04;;;;;;;9.53;6.63;;;0.60;99.90;;;;;;5047748;28;20396;-65
2022/11/19 09:23:30;;;;;;;11.10;7.00;;;0.60;99.90;;;;;;5047110;28;20220;-65
2022/11/19 09:26:05;;;;;;;7.97;6.30;;;0.70;99.90;;;;;;5028953;28;20045;-65
2022/11/19 09:28:32;;;;;;;10.25;7.07;;;0.80;99.90;;;;;;5037045;28;20552;-65
2022/11/19 09:31:01;;;;;;;9.75;6.30;;;0.70;99.90;;;;;;5041003;28;20041;-65
2022/11/19 09:33:28;;;;;;;9.60;6.80;;;0.80;99.90;;;;;;5046790;28;20049;-65
2022/11/19 09:35:54;;;;;;;9.60;7.45;;;0.80;99.90;;;;;;5041147;28;20037;-65
2022/11/19 09:38:20;;;;;;;10.85;6.90;;;0.90;99.90;;;;;;5045942;28;20048;-65
2022/11/19 09:40:49;;;;;;;11.88;7.05;;;0.90;99.90;;;;;;5046757;28;20041;-65
2022/11/19 09:43:44;;;;;;;8.93;7.23;;;1.00;99.90;;;;;;5044967;28;20052;-65
2022/11/19 09:46:19;;;;;;;8.02;5.88;;;1.00;99.90;;;;;;5047004;28;20049;-65
2022/11/19 09:48:46;;;;;;;9.85;6.30;;;1.10;99.90;;;;;;5038236;28;20470;-65
2022/11/19 09:51:15;;;;;;;9.07;6.90;;;1.10;99.80;;;;;;5046202;28;20049;-66
2022/11/19 09:53:53;;;;;;;10.75;6.72;;;1.10;99.90;;;;;;5046154;28;20045;-66
2022/11/19 09:56:33;;;;;;;10.55;6.40;;;1.10;99.90;;;;;;5046320;28;20128;-65
2022/11/19 09:59:01;;;;;;;;;;;1.20;99.90;;;;;;5034324;28;20053;-65
2022/11/19 10:01:29;;;;;;;9.10;6.53;;;1.20;98.60;;;;;;5045644;28;20303;-67
2022/11/19 10:03:55;;;;;;;6.93;5.07;;;1.20;99.10;;;;;;5047289;28;20124;-67
2022/11/19 10:06:28;;;;;;;6.97;5.03;;;1.30;95.70;;;;;;5017317;28;20049;-67
2022/11/19 10:09:06;;;;;;;9.90;6.28;;;1.30;97.10;;;;;;5037669;28;20037;-67
2022/11/19 10:11:51;;;;;;;9.68;5.57;;;1.30;96.10;;;;;;5046318;28;20041;-67
2022/11/19 10:14:36;;;;;;;8.18;6.13;;;1.30;96.40;;;;;;5041653;28;20057;-67
2022/11/19 10:17:14;;;;;;;6.20;4.90;;;1.40;97.50;;;;;;5046636;28;20510;-67
2022/11/19 10:20:02;;;;;;;14.15;6.80;;;1.40;95.50;;;;;;5045634;28;20056;-67
2022/11/19 10:22:37;;;;;;;7.72;5.47;;;1.30;96.50;;;;;;5043952;28;20475;-67
2022/11/19 10:25:15;;;;;;;8.45;6.03;;;1.40;96.70;;;;;;5047601;28;20505;-67
2022/11/19 10:27:54;;;;;;;10.15;6.45;;;1.50;95.80;;;;;;5045031;28;20048;-67
2022/11/19 10:30:25;;;;;;;6.55;4.78;;;1.60;96.90;;;;;;5047011;28;20072;-67
2022/11/19 10:32:54;;;;;;;5.55;4.78;;;1.60;93.20;;;;;;5045978;28;20047;-67
2022/11/19 10:35:41;;;;;;;8.00;6.07;;;1.70;94.20;;;;;;5044434;28;20441;-67
2022/11/19 10:38:19;;;;;;;13.13;5.65;;;1.70;88.80;;;;;;5045690;28;20095;-67
2022/11/19 10:40:52;;;;;;;10.43;6.32;;;1.80;87.30;;;;;;5046350;28;20047;-67
2022/11/19 10:43:33;;;;;;;8.32;6.10;;;1.90;90.60;;;;;;5046521;28;20043;-67
2022/11/19 10:46:01;;;;;;;6.28;4.97;;;2.00;81.30;;;;;;5046850;28;20580;-67
2022/11/19 10:48:45;;;;;;;5.32;4.25;;;2.00;84.30;;;;;;5045377;28;20427;-67
2022/11/19 10:51:22;;;;;;;6.75;4.63;;;1.90;80.60;;;;;;5046976;28;20048;-67
2022/11/19 10:53:50;;;;;;;8.00;5.15;;;1.90;82.60;;;;;;5027915;28;20052;-67
2022/11/19 10:56:21;;;;;;;9.35;5.50;;;1.90;83.00;;;;;;5045287;28;20130;-67
2022/11/19 10:58:51;;;;;;;7.18;5.22;;;2.00;83.90;;;;;;5049571;28;20641;-67
2022/11/19 11:01:33;;;;;;;7.93;5.15;;;2.10;79.40;;;;;;5048323;28;20053;-67
2022/11/19 11:04:22;;;;;;;10.13;5.40;;;2.10;80.90;;;;;;5037686;28;20123;-67
2022/11/19 11:07:02;;;;;;;7.38;5.25;;;2.20;80.80;;;;;;5048522;28;20499;-67
2022/11/19 11:09:34;;;;;;;6.30;5.45;;;2.20;82.40;;;;;;5050176;28;20079;-67
2022/11/19 11:15:20;;;;;;;8.10;5.00;;;2.30;89.40;;;;;;5038979;28;20072;-67
2022/11/19 11:17:48;;;;;;;7.40;5.35;;;2.30;86.20;;;;;;5049083;28;20144;-67
2022/11/19 11:20:17;;;;;;;7.47;5.40;;;2.40;93.30;;;;;;5046518;28;20161;-67
2022/11/19 11:22:47;;;;;;;6.85;5.40;;;2.50;88.70;;;;;;5046148;28;20143;-67
2022/11/19 11:25:24;;;;;;;6.03;5.35;;;2.50;85.00;;;;;;5048008;28;20040;-67
2022/11/19 11:28:05;;;;;;;7.05;5.35;;;2.40;85.00;;;;;;5045592;28;20514;-67
2022/11/19 11:30:31;;;;;;;6.97;5.50;;;2.50;89.60;;;;;;5046582;28;20499;-67
2022/11/19 11:33:16;;;;;;;9.18;6.00;;;2.50;87.20;;;;;;5047896;28;20045;-67
2022/11/19 11:35:44;;;;;;;5.53;5.03;;;2.50;91.50;;;;;;5045303;28;20527;-67
2022/11/19 11:38:12;;;;;;;6.63;5.28;;;2.60;86.20;;;;;;5048602;28;20149;-67
2022/11/19 11:40:37;;;;;;;9.30;5.38;;;2.60;87.10;;;;;;5046681;28;20045;-67
2022/11/19 11:43:03;;;;;;;10.30;5.88;;;2.70;91.20;;;;;;5048119;28;20404;-67
2022/11/19 11:45:32;;;;;;;6.32;5.28;;;2.70;91.30;;;;;;5045167;28;20049;-67
2022/11/19 11:48:04;;;;;;;7.90;5.55;;;2.70;86.10;;;;;;5046299;28;20525;-67
2022/11/19 11:50:30;;;;;;;9.55;4.55;;;2.80;91.80;;;;;;5046650;28;20438;-67
2022/11/19 11:52:56;;;;;;;7.57;5.22;;;2.80;89.20;;;;;;5047217;28;20044;-67
2022/11/19 11:55:22;;;;;;;7.47;5.18;;;2.80;90.50;;;;;;5049370;28;20049;-67
2022/11/19 11:58:00;;;;;;;6.13;4.20;;;2.90;87.00;;;;;;5045825;28;20089;-66
2022/11/19 12:00:29;;;;;;;8.77;4.85;;;2.90;88.40;;;;;;5049667;28;20127;-67
2022/11/19 12:03:14;;;;;;;6.68;4.82;;;2.90;88.50;;;;;;5030477;28;20051;-66
2022/11/19 12:06:03;;;;;;;6.30;5.03;;;2.80;86.60;;;;;;5047723;28;20409;-67
2022/11/19 12:08:36;;;;;;;8.88;6.07;;;2.90;85.90;;;;;;5049107;28;20135;-66
2022/11/19 12:11:19;;;;;;;7.75;5.00;;;2.90;91.00;;;;;;5047928;28;20049;-67
2022/11/19 12:14:03;;;;;;;9.10;5.32;;;3.10;88.10;;;;;;5049914;28;20135;-67
2022/11/19 12:17:10;;;;;;;10.38;5.45;;;3.00;89.80;;;;;;5036047;28;20056;-66
2022/11/19 12:19:54;;;;;;;6.65;4.88;;;3.10;83.10;;;;;;4963830;28;20054;-66
2022/11/19 12:22:38;;;;;;;5.78;5.10;;;3.10;85.00;;;;;;5043341;28;20553;-66
2022/11/19 12:25:18;;;;;;;6.38;5.18;;;3.10;86.40;;;;;;5042161;28;20044;-66
2022/11/19 12:28:09;;;;;;;6.78;5.72;;;3.20;89.00;;;;;;5037184;28;20046;-66
2022/11/19 12:31:13;;;;;;;5.88;5.28;;;3.30;84.80;;;;;;5047910;28;20040;-67
2022/11/19 12:34:08;;;;;;;7.00;5.30;;;3.30;81.50;;;;;;5045775;28;20045;-66
2022/11/19 12:37:09;;;;;;;8.50;6.00;;;3.40;89.80;;;;;;5010036;28;20514;-66
2022/11/19 12:39:59;;;;;;;8.60;5.82;;;3.50;78.10;;;;;;5024285;28;20447;-66
2022/11/19 12:42:39;;;;;;;9.45;6.68;;;3.50;86.70;;;;;;5039335;28;20092;-66
2022/11/19 12:45:12;;;;;;;;;;;3.60;90.20;;;;;;5048691;28;20373;-66
2022/11/19 12:47:43;;;;;;;10.10;7.55;;;3.60;86.60;;;;;;5048733;28;20302;-66
2022/11/19 12:50:38;;;;;;;13.45;8.18;;;3.70;90.10;;;;;;5047090;28;20625;-66
2022/11/19 12:53:19;;;;;;;10.60;7.32;;;3.70;89.50;;;;;;5048886;28;20140;-66
2022/11/19 12:55:50;;;;;;;12.90;7.47;;;3.80;88.20;;;;;;5048906;28;20091;-66
2022/11/19 12:58:38;;;;;;;12.77;7.60;;;3.80;90.20;;;;;;5047804;28;20363;-66
2022/11/19 13:01:12;;;;;;;12.68;7.97;;;3.80;91.30;;;;;;5042722;28;20391;-66
2022/11/19 13:03:48;;;;;;;11.05;7.13;;;3.90;93.30;;;;;;5044670;28;20498;-66
2022/11/19 13:06:43;;;;;;;10.80;7.53;;;3.90;91.20;;;;;;5039485;28;20049;-66
2022/11/19 13:09:42;;;;;;;12.30;8.00;;;3.90;93.20;;;;;;5046685;28;20061;-66
2022/11/19 13:12:13;;;;;;;10.32;7.18;;;3.90;90.10;;;;;;5041961;28;20124;-67
2022/11/19 13:14:40;;;;;;;;;;;3.90;91.90;;;;;;5048831;28;20079;-66
2022/11/19 13:17:17;;;;;;;10.07;7.15;;;3.80;92.20;;;;;;5048310;28;19921;-66
2022/11/19 13:19:47;;;;;;;8.80;6.82;;;3.80;92.70;;;;;;5046236;28;20549;-66
2022/11/19 13:22:22;;;;;;;;;;;3.80;93.70;;;;;;5048172;28;20118;-66
2022/11/19 13:24:57;;;;;;;6.82;5.90;;;3.80;94.00;;;;;;5046857;28;19971;-66
2022/11/19 13:27:26;;;;;;;11.40;6.25;;;3.80;95.10;;;;;;5047153;28;20107;-66
2022/11/19 13:29:59;;;;;;;7.28;5.90;;;3.80;95.60;;;;;;5048150;28;20403;-66
2022/11/19 13:32:33;;;;;;;7.03;5.90;;;3.80;96.20;;;;;;5062245;28;20132;-66
2022/11/19 13:35:22;;;;;;;5.72;5.13;;;3.80;97.50;;;;;;5046803;28;20491;-66